Alvada, Ohio
Current Conditions -  °F | °C
As of 8:53 AM on Saturday 25 Oct 2014 (Local Time) from KFDY Reporting Station
Haze Haze  
Wind Chill: 57°   Ceiling: 6000
Heat Index: 57°   Visibility: 5mi
Dew Point: 50°   Wind: 10mph
Humidity: 77%   Direction: 230°SW
Pressure: 29.91"   Gusts: NA
Location:  41.05°N, 83.4°W
Report Text: KFDY 251253Z AUTO 23009KT 5SM HZ FEW043 OVC060 14/10 A2991 RMK AO2 SLP123 T01390100
Loading
Personal Weather Stations






























Interactive Weather Map
Tropical Storm Tracking
New forecast layout! Learn more

10-Day Weather Forecast

Advertisements
Track Severe Weather on mobile